createdAt,value
2023-03-16T00:00:14.315Z,8.32
2023-03-16T00:03:12.918Z,7.47
2023-03-16T00:06:10.677Z,6.13
2023-03-16T00:09:10.376Z,5.22
2023-03-16T00:12:16.297Z,5.68
2023-03-16T00:15:14.494Z,4.95
2023-03-16T00:18:12.283Z,4.60
2023-03-16T00:21:10.769Z,5.45
2023-03-16T00:24:08.900Z,4.75
2023-03-16T00:27:06.756Z,4.72
2023-03-16T00:30:05.220Z,4.20
2023-03-16T00:33:03.984Z,4.93
2023-03-16T00:36:03.559Z,4.32
2023-03-16T00:39:01.396Z,4.40
2023-03-16T00:41:59.106Z,4.07
2023-03-16T00:44:58.657Z,3.45
2023-03-16T00:47:56.385Z,3.53
2023-03-16T00:50:55.101Z,3.10
2023-03-16T00:53:52.816Z,3.50
2023-03-16T00:56:50.750Z,3.15
2023-03-16T00:59:49.160Z,3.22
2023-03-16T01:02:47.210Z,4.00
2023-03-16T01:05:46.106Z,3.92
2023-03-16T01:08:44.792Z,3.28
2023-03-16T01:11:43.971Z,2.72
2023-03-16T01:14:42.685Z,3.20
2023-03-16T01:17:41.289Z,2.53
2023-03-16T01:20:39.238Z,2.42
2023-03-16T01:23:38.152Z,2.17
2023-03-16T01:26:37.450Z,2.20
2023-03-16T01:29:35.293Z,2.40
2023-03-16T01:32:34.898Z,3.10
2023-03-16T01:35:32.695Z,3.00
2023-03-16T01:38:31.000Z,3.28
2023-03-16T01:41:28.855Z,3.15
2023-03-16T01:44:31.168Z,2.58
2023-03-16T01:47:29.025Z,2.88
2023-03-16T01:50:28.299Z,3.30
2023-03-16T01:53:27.286Z,3.15
2023-03-16T01:56:31.477Z,5.00
2023-03-16T01:59:36.597Z,7.07
2023-03-16T02:02:34.808Z,6.47
2023-03-16T02:05:39.869Z,9.23
2023-03-16T02:08:40.513Z,10.32
2023-03-16T02:11:38.634Z,9.68
2023-03-16T02:14:36.579Z,12.55
2023-03-16T02:17:36.075Z,11.13
2023-03-16T02:20:53.924Z,13.35
2023-03-16T02:23:52.253Z,12.60
2023-03-16T02:26:58.612Z,13.70
2023-03-16T02:30:05.368Z,14.07
2023-03-16T02:33:05.568Z,13.88
2023-03-16T02:36:04.101Z,16.38
2023-03-16T02:39:02.052Z,15.07
2023-03-16T02:41:59.801Z,14.68
2023-03-16T02:45:00.092Z,14.02
2023-03-16T02:48:04.486Z,15.85
2023-03-16T02:51:02.438Z,13.00
2023-03-16T02:54:00.560Z,17.15
2023-03-16T02:56:58.474Z,12.43
2023-03-16T02:59:56.278Z,13.52
2023-03-16T03:02:54.216Z,13.57
2023-03-16T03:05:51.975Z,16.75
2023-03-16T03:08:56.316Z,13.25
2023-03-16T03:11:54.080Z,14.05
2023-03-16T03:14:51.906Z,15.25
2023-03-16T03:17:49.618Z,15.82
2023-03-16T03:20:47.489Z,15.43
2023-03-16T03:23:47.188Z,14.98
2023-03-16T03:26:45.631Z,14.82
2023-03-16T03:29:43.469Z,15.77
2023-03-16T03:32:41.860Z,16.67
2023-03-16T03:35:39.670Z,14.23
2023-03-16T03:38:37.623Z,15.18
2023-03-16T03:41:35.406Z,15.50
2023-03-16T03:44:35.293Z,14.50
2023-03-16T03:47:33.082Z,13.98
2023-03-16T03:50:30.880Z,15.15
2023-03-16T03:53:28.677Z,13.90
2023-03-16T03:56:26.748Z,15.55
2023-03-16T03:59:24.448Z,15.02
2023-03-16T04:02:22.394Z,15.43
2023-03-16T04:05:20.260Z,14.70
2023-03-16T04:08:18.102Z,15.45
2023-03-16T04:11:15.850Z,17.73
2023-03-16T04:14:13.676Z,13.93
2023-03-16T04:17:12.894Z,16.27
2023-03-16T04:20:16.135Z,16.30
2023-03-16T04:23:14.518Z,17.17
2023-03-16T04:26:12.424Z,16.73
2023-03-16T04:29:10.139Z,15.88
2023-03-16T04:32:08.915Z,16.90
2023-03-16T04:35:07.204Z,18.20
2023-03-16T04:38:05.226Z,16.00
2023-03-16T04:41:04.558Z,16.58
2023-03-16T04:44:02.477Z,17.55
2023-03-16T04:47:00.378Z,16.98
2023-03-16T04:49:58.228Z,19.17
2023-03-16T04:52:55.958Z,17.35
2023-03-16T04:55:53.823Z,19.08
2023-03-16T04:58:51.951Z,19.35
2023-03-16T05:01:50.683Z,18.52
2023-03-16T05:04:49.239Z,19.38
2023-03-16T05:07:47.193Z,19.80
2023-03-16T05:10:45.331Z,19.00
2023-03-16T05:13:43.148Z,19.50
2023-03-16T05:16:42.523Z,20.92
2023-03-16T05:19:40.994Z,19.73
2023-03-16T05:22:41.086Z,19.65
2023-03-16T05:25:41.008Z,18.25
2023-03-16T05:28:38.739Z,19.23
2023-03-16T05:31:38.237Z,19.52
2023-03-16T05:34:35.981Z,18.38
2023-03-16T05:37:35.456Z,17.10
2023-03-16T05:40:33.499Z,16.48
2023-03-16T05:43:32.005Z,19.70
2023-03-16T05:46:29.765Z,18.95
2023-03-16T05:49:27.703Z,17.77
2023-03-16T05:52:25.938Z,19.35
2023-03-16T05:55:24.171Z,20.75
2023-03-16T05:58:22.262Z,19.65
2023-03-16T06:01:20.966Z,18.67
2023-03-16T06:04:18.706Z,19.48
2023-03-16T06:07:32.033Z,19.90
2023-03-16T06:10:30.159Z,20.98
2023-03-16T06:13:28.298Z,19.05
2023-03-16T06:16:26.254Z,17.75
2023-03-16T06:19:24.116Z,19.75
2023-03-16T06:22:21.835Z,18.48
2023-03-16T06:25:19.881Z,18.98
2023-03-16T06:28:17.980Z,18.90
2023-03-16T06:31:16.091Z,18.00
2023-03-16T06:34:13.932Z,17.52
2023-03-16T06:37:12.004Z,21.17
2023-03-16T06:40:10.535Z,19.10
2023-03-16T06:43:08.666Z,19.90
2023-03-16T06:46:06.865Z,17.73
2023-03-16T06:49:06.254Z,20.15
2023-03-16T06:52:04.282Z,19.75
2023-03-16T06:55:02.181Z,22.73
2023-03-16T06:57:59.963Z,23.17
2023-03-16T07:00:58.084Z,21.30
2023-03-16T07:03:55.981Z,21.23
2023-03-16T07:06:57.639Z,27.05
2023-03-16T07:09:55.368Z,30.52
2023-03-16T07:12:53.304Z,25.13
2023-03-16T07:15:52.820Z,21.38
2023-03-16T07:18:50.727Z,22.67
2023-03-16T07:21:48.575Z,23.50
2023-03-16T07:24:46.435Z,20.77
2023-03-16T07:27:45.962Z,20.45
2023-03-16T07:30:53.328Z,21.05
2023-03-16T07:33:58.111Z,20.35
2023-03-16T07:36:55.937Z,22.55
2023-03-16T07:39:53.761Z,20.92
2023-03-16T07:42:53.768Z,23.25
2023-03-16T07:45:53.068Z,21.27
2023-03-16T07:48:51.001Z,21.73
2023-03-16T07:51:48.883Z,23.00
2023-03-16T07:54:46.816Z,21.52
2023-03-16T07:57:48.319Z,22.25
2023-03-16T08:00:46.280Z,20.15
2023-03-16T08:03:45.215Z,19.50
2023-03-16T08:06:43.287Z,24.45
2023-03-16T08:09:41.844Z,23.38
2023-03-16T08:12:39.839Z,19.90
2023-03-16T08:15:37.705Z,22.63
2023-03-16T08:18:35.823Z,20.65
2023-03-16T08:21:35.108Z,21.50
2023-03-16T08:24:35.914Z,22.02
2023-03-16T08:27:33.977Z,21.48
2023-03-16T08:30:32.134Z,21.30
2023-03-16T08:33:30.002Z,22.17
2023-03-16T08:36:29.661Z,23.40
2023-03-16T08:39:27.932Z,24.27
2023-03-16T08:42:25.929Z,21.33
2023-03-16T08:45:24.861Z,23.33
2023-03-16T08:48:22.866Z,22.70
2023-03-16T08:51:20.768Z,26.23
2023-03-16T08:54:18.600Z,22.90
2023-03-16T08:57:16.752Z,24.55
2023-03-16T09:00:15.854Z,26.08
2023-03-16T09:03:13.965Z,30.13
2023-03-16T09:06:14.018Z,27.55
2023-03-16T09:09:12.208Z,27.35
2023-03-16T09:12:10.221Z,26.25
2023-03-16T09:15:09.444Z,28.27
2023-03-16T09:18:07.376Z,28.40
2023-03-16T09:21:07.890Z,30.17
2023-03-16T09:24:05.975Z,29.48
2023-03-16T09:27:03.937Z,31.15
2023-03-16T09:30:03.251Z,29.17
2023-03-16T09:33:01.485Z,30.05
2023-03-16T09:35:59.829Z,29.13
2023-03-16T09:38:57.568Z,31.98
2023-03-16T09:42:05.214Z,31.60
2023-03-16T09:45:19.636Z,31.20
2023-03-16T09:48:19.165Z,29.92
2023-03-16T09:51:29.837Z,29.30
2023-03-16T09:54:39.786Z,30.85
2023-03-16T09:57:42.460Z,30.17
2023-03-16T10:00:51.603Z,31.00
2023-03-16T10:04:06.993Z,32.35
2023-03-16T10:07:31.085Z,33.20
2023-03-16T10:10:59.512Z,29.80
2023-03-16T10:14:20.618Z,33.28
2023-03-16T10:17:24.566Z,31.48
2023-03-16T10:20:24.587Z,30.23
2023-03-16T10:23:25.245Z,30.67
2023-03-16T10:26:29.316Z,33.95
2023-03-16T10:29:30.889Z,33.83
2023-03-16T10:32:35.124Z,34.08
2023-03-16T10:35:56.233Z,33.90
2023-03-16T10:38:58.712Z,34.20
2023-03-16T10:41:58.325Z,32.97
2023-03-16T10:45:01.893Z,31.90
2023-03-16T10:48:20.132Z,33.58
2023-03-16T10:51:26.681Z,34.80
2023-03-16T10:54:41.450Z,32.83
2023-03-16T10:57:44.228Z,29.35
2023-03-16T11:00:43.991Z,31.25
2023-03-16T11:03:42.507Z,32.33
2023-03-16T11:06:53.961Z,32.17
2023-03-16T11:09:55.478Z,29.27
2023-03-16T11:12:53.473Z,31.48
2023-03-16T11:16:05.861Z,32.55
2023-03-16T11:19:27.664Z,29.13
2023-03-16T11:22:27.084Z,30.73
2023-03-16T11:25:34.377Z,30.38
2023-03-16T11:28:40.991Z,32.05
2023-03-16T11:31:51.562Z,30.50
2023-03-16T11:34:49.610Z,30.45
2023-03-16T11:38:10.241Z,33.17
2023-03-16T11:41:15.480Z,31.48
2023-03-16T11:44:28.262Z,35.28
2023-03-16T11:47:49.483Z,31.15
2023-03-16T11:51:09.988Z,32.90
2023-03-16T11:54:33.696Z,34.53
2023-03-16T11:57:44.021Z,34.60
2023-03-16T12:01:09.374Z,33.35
2023-03-16T12:04:28.670Z,36.15
2023-03-16T12:07:49.618Z,33.22
2023-03-16T12:11:03.057Z,32.88
2023-03-16T12:14:15.249Z,31.13
2023-03-16T12:17:21.216Z,33.25
2023-03-16T12:20:25.337Z,33.15
2023-03-16T12:23:32.154Z,34.28
2023-03-16T12:26:35.984Z,34.72
2023-03-16T12:29:45.188Z,32.78
2023-03-16T12:32:54.060Z,36.13
2023-03-16T12:36:26.995Z,34.35
2023-03-16T12:39:52.352Z,34.72
2023-03-16T12:43:10.435Z,34.35
2023-03-16T12:46:29.677Z,35.90
2023-03-16T12:49:32.558Z,34.67
2023-03-16T12:52:42.320Z,35.67
2023-03-16T12:55:45.651Z,37.00
2023-03-16T13:01:46.425Z,36.33
2023-03-16T13:04:49.118Z,37.75
2023-03-16T13:07:51.219Z,37.90
2023-03-16T13:11:06.135Z,35.78
2023-03-16T13:14:13.167Z,35.78
2023-03-16T13:17:32.408Z,35.33
2023-03-16T13:20:34.296Z,35.78
2023-03-16T13:23:55.048Z,31.88
2023-03-16T13:26:59.827Z,34.15
2023-03-16T13:30:00.018Z,31.13
2023-03-16T13:33:20.242Z,33.88
2023-03-16T13:36:18.839Z,29.60
2023-03-16T13:39:22.983Z,32.97
2023-03-16T13:42:22.868Z,34.55
2023-03-16T13:45:24.338Z,32.70
2023-03-16T13:48:22.477Z,33.30
2023-03-16T13:51:23.147Z,33.72
2023-03-16T13:54:28.741Z,36.85
2023-03-16T13:57:30.910Z,31.73
2023-03-16T14:00:35.194Z,33.53
2023-03-16T14:03:36.789Z,30.52
2023-03-16T14:06:35.972Z,31.63
2023-03-16T14:09:35.885Z,32.38
2023-03-16T14:12:33.718Z,31.20
2023-03-16T14:15:31.809Z,33.70
2023-03-16T14:18:43.953Z,35.15
2023-03-16T14:21:46.337Z,32.43
2023-03-16T14:24:46.717Z,33.43
2023-03-16T14:27:47.314Z,32.13
2023-03-16T14:30:54.517Z,35.28
2023-03-16T14:34:01.554Z,32.13
2023-03-16T14:37:09.993Z,34.00
2023-03-16T14:40:21.521Z,32.60
2023-03-16T14:43:21.876Z,33.58
2023-03-16T14:46:34.640Z,33.05
2023-03-16T14:49:41.542Z,32.25
2023-03-16T14:52:41.121Z,36.00
2023-03-16T14:55:39.019Z,31.80
2023-03-16T14:58:36.978Z,34.78
2023-03-16T15:01:35.265Z,37.72
2023-03-16T15:04:35.481Z,35.67
2023-03-16T15:07:39.398Z,35.00
2023-03-16T15:10:37.426Z,34.40
2023-03-16T15:13:38.005Z,31.33
2023-03-16T15:16:37.298Z,35.10
2023-03-16T15:19:35.187Z,36.75
2023-03-16T15:22:37.636Z,36.95
2023-03-16T15:25:39.161Z,39.43
2023-03-16T15:28:36.957Z,38.53
2023-03-16T15:31:34.862Z,39.72
2023-03-16T15:34:32.692Z,38.45
2023-03-16T15:37:33.301Z,39.58
2023-03-16T15:40:31.787Z,38.88
2023-03-16T15:43:32.545Z,38.40
2023-03-16T15:46:30.311Z,38.40
2023-03-16T15:49:30.206Z,38.45
2023-03-16T15:52:34.646Z,38.53
2023-03-16T15:55:38.370Z,38.88
2023-03-16T15:58:38.561Z,43.78
2023-03-16T16:01:46.226Z,41.50
2023-03-16T16:04:44.289Z,41.75
2023-03-16T16:07:42.230Z,44.22
2023-03-16T16:10:42.109Z,39.92
2023-03-16T16:13:44.669Z,41.42
2023-03-16T16:16:46.503Z,42.47
2023-03-16T16:19:44.409Z,41.92
2023-03-16T16:22:42.873Z,46.28
2023-03-16T16:25:42.514Z,42.40
2023-03-16T16:28:40.302Z,40.65
2023-03-16T16:31:53.667Z,43.40
2023-03-16T16:35:01.933Z,40.88
2023-03-16T16:38:04.812Z,41.38
2023-03-16T16:41:08.237Z,44.28
2023-03-16T16:44:14.370Z,40.60
2023-03-16T16:47:20.669Z,40.20
2023-03-16T16:50:22.213Z,41.30
2023-03-16T16:53:21.975Z,43.67
2023-03-16T16:56:28.578Z,40.38
2023-03-16T16:59:37.531Z,45.17
2023-03-16T17:02:47.068Z,42.08
2023-03-16T17:05:44.785Z,40.88
2023-03-16T17:08:42.976Z,43.30
2023-03-16T17:11:43.999Z,42.33
2023-03-16T17:14:42.522Z,42.38
2023-03-16T17:17:41.102Z,43.65
2023-03-16T17:20:39.507Z,42.50
2023-03-16T17:23:37.845Z,43.95
2023-03-16T17:26:42.802Z,42.35
2023-03-16T17:29:43.204Z,43.60
2023-03-16T17:32:41.222Z,45.08
2023-03-16T17:35:39.341Z,43.20
2023-03-16T17:38:37.935Z,44.00
2023-03-16T17:41:36.174Z,38.88
2023-03-16T17:44:38.649Z,41.35
2023-03-16T17:47:40.015Z,38.90
2023-03-16T17:50:38.031Z,40.80
2023-03-16T17:53:35.805Z,40.47
2023-03-16T17:56:34.541Z,40.10
2023-03-16T17:59:32.737Z,38.20
2023-03-16T18:02:40.707Z,38.10
2023-03-16T18:05:38.824Z,37.85
2023-03-16T18:08:37.454Z,38.65
2023-03-16T18:11:40.329Z,38.88
2023-03-16T18:14:40.376Z,36.15
2023-03-16T18:17:38.499Z,35.88
2023-03-16T18:20:37.297Z,35.97
2023-03-16T18:23:37.382Z,37.42
2023-03-16T18:26:35.328Z,35.80
2023-03-16T18:29:33.098Z,37.22
2023-03-16T18:32:32.394Z,37.25
2023-03-16T18:35:30.856Z,33.53
2023-03-16T18:38:35.401Z,31.67
2023-03-16T18:41:34.958Z,29.48
2023-03-16T18:44:32.893Z,28.42
2023-03-16T18:47:33.094Z,29.30
2023-03-16T18:50:31.514Z,27.90
2023-03-16T18:53:31.069Z,28.15
2023-03-16T18:56:30.070Z,27.23
2023-03-16T18:59:28.534Z,33.60
2023-03-16T19:02:40.206Z,37.05
2023-03-16T19:05:39.384Z,37.40
2023-03-16T19:08:37.439Z,40.45
2023-03-16T19:11:40.768Z,38.42
2023-03-16T19:17:36.502Z,44.30
2023-03-16T19:20:35.613Z,44.47
2023-03-16T19:23:36.913Z,46.45
2023-03-16T19:26:37.907Z,47.60
2023-03-16T19:29:36.582Z,46.10
2023-03-16T19:32:36.602Z,43.45
2023-03-16T19:35:50.652Z,45.92
2023-03-16T19:38:51.098Z,45.70
2023-03-16T19:41:55.116Z,49.10
2023-03-16T19:44:53.099Z,44.70
2023-03-16T19:47:52.060Z,42.22
2023-03-16T19:50:51.634Z,44.47
2023-03-16T19:53:49.782Z,48.08
2023-03-16T19:56:47.893Z,46.45
2023-03-16T19:59:50.767Z,45.25
2023-03-16T20:02:49.485Z,44.58
2023-03-16T20:05:47.274Z,45.08
2023-03-16T20:08:46.401Z,43.10
2023-03-16T20:11:44.794Z,42.70
2023-03-16T20:14:42.818Z,44.53
2023-03-16T20:17:43.685Z,42.30
2023-03-16T20:20:42.694Z,46.42
2023-03-16T20:23:40.511Z,45.20
2023-03-16T20:26:38.558Z,41.65
2023-03-16T20:29:36.713Z,43.42
2023-03-16T20:32:36.383Z,43.13
2023-03-16T20:35:34.246Z,41.47
2023-03-16T20:38:32.180Z,43.53
2023-03-16T20:41:33.276Z,40.30
2023-03-16T20:44:31.758Z,41.70
2023-03-16T20:47:29.527Z,41.20
2023-03-16T20:50:30.419Z,41.20
2023-03-16T20:53:28.193Z,38.33
2023-03-16T20:56:27.232Z,39.38
2023-03-16T20:59:26.987Z,40.33
2023-03-16T21:02:35.621Z,39.65
2023-03-16T21:05:33.476Z,40.63
2023-03-16T21:08:31.423Z,40.50
2023-03-16T21:11:37.284Z,37.72
2023-03-16T21:14:35.170Z,41.40
2023-03-16T21:17:36.995Z,38.72
2023-03-16T21:20:37.169Z,40.25
2023-03-16T21:23:34.905Z,36.08
2023-03-16T21:26:34.551Z,36.58
2023-03-16T21:29:32.338Z,39.17
2023-03-16T21:32:31.415Z,37.58
2023-03-16T21:35:36.373Z,37.88
2023-03-16T21:38:34.353Z,35.05
2023-03-16T21:41:32.321Z,37.97
2023-03-16T21:44:30.319Z,36.53
2023-03-16T21:47:29.734Z,32.65
2023-03-16T21:50:33.935Z,34.05
2023-03-16T21:53:36.672Z,33.35
2023-03-16T21:56:34.600Z,33.92
2023-03-16T21:59:32.646Z,34.65
2023-03-16T22:02:30.576Z,35.58
2023-03-16T22:05:34.195Z,32.95
2023-03-16T22:08:34.892Z,31.25
2023-03-16T22:11:34.987Z,31.40
2023-03-16T22:14:33.091Z,31.20
2023-03-16T22:17:33.666Z,30.27
2023-03-16T22:20:31.587Z,29.80
2023-03-16T22:23:34.770Z,28.70
2023-03-16T22:26:33.233Z,26.90
2023-03-16T22:29:34.132Z,28.67
2023-03-16T22:32:32.249Z,29.75
2023-03-16T22:35:34.871Z,28.60
2023-03-16T22:38:33.157Z,27.88
2023-03-16T22:41:31.575Z,28.13
2023-03-16T22:44:29.486Z,27.70
2023-03-16T22:47:32.705Z,25.17
2023-03-16T22:50:35.049Z,23.30
2023-03-16T22:53:44.386Z,23.53
2023-03-16T22:56:44.485Z,24.65
2023-03-16T22:59:43.010Z,25.20
2023-03-16T23:02:41.572Z,24.15
2023-03-16T23:05:39.288Z,22.75
2023-03-16T23:08:37.233Z,23.30
2023-03-16T23:11:37.562Z,26.58
2023-03-16T23:14:38.265Z,32.45
2023-03-16T23:17:36.128Z,34.95
2023-03-16T23:20:34.196Z,37.72
2023-03-16T23:23:31.896Z,33.65
2023-03-16T23:26:30.116Z,36.38
2023-03-16T23:29:28.380Z,34.17
2023-03-16T23:32:27.092Z,32.55
2023-03-16T23:35:27.995Z,31.38
2023-03-16T23:38:25.804Z,32.08
2023-03-16T23:41:25.626Z,31.35
2023-03-16T23:44:26.926Z,29.50
2023-03-16T23:47:24.726Z,31.58
2023-03-16T23:50:27.264Z,28.92
2023-03-16T23:53:26.024Z,31.30
2023-03-16T23:56:24.369Z,29.77
2023-03-16T23:59:23.847Z,26.83
